createdAt,value
2023-04-03T00:00:41.478Z,1028.15
2023-04-03T00:01:41.512Z,1028.16
2023-04-03T00:02:41.554Z,1028.19
2023-04-03T00:03:41.487Z,1028.20
2023-04-03T00:04:41.537Z,1028.22
2023-04-03T00:05:41.443Z,1028.20
2023-04-03T00:06:41.372Z,1028.21
2023-04-03T00:07:41.418Z,1028.20
2023-04-03T00:08:41.432Z,1028.22
2023-04-03T00:09:41.483Z,1028.25
2023-04-03T00:10:41.353Z,1028.25
2023-04-03T00:11:41.334Z,1028.27
2023-04-03T00:12:41.361Z,1028.24
2023-04-03T00:13:41.344Z,1028.23
2023-04-03T00:14:41.273Z,1028.19
2023-04-03T00:15:41.383Z,1028.23
2023-04-03T00:16:41.300Z,1028.24
2023-04-03T00:17:41.297Z,1028.23
2023-04-03T00:18:41.257Z,1028.22
2023-04-03T00:19:41.257Z,1028.19
2023-04-03T00:20:41.194Z,1028.20
2023-04-03T00:21:41.271Z,1028.23
2023-04-03T00:22:41.187Z,1028.26
2023-04-03T00:23:41.183Z,1028.23
2023-04-03T00:24:41.173Z,1028.25
2023-04-03T00:25:41.174Z,1028.21
2023-04-03T00:26:41.141Z,1028.20
2023-04-03T00:27:41.182Z,1028.26
2023-04-03T00:28:41.093Z,1028.26
2023-04-03T00:29:41.106Z,1028.26
2023-04-03T00:30:41.138Z,1028.24
2023-04-03T00:31:41.073Z,1028.22
2023-04-03T00:32:41.084Z,1028.21
2023-04-03T00:33:41.098Z,1028.25
2023-04-03T00:34:41.024Z,1028.27
2023-04-03T00:35:41.120Z,1028.27
2023-04-03T00:36:41.074Z,1028.28
2023-04-03T00:37:41.021Z,1028.24
2023-04-03T00:38:40.985Z,1028.26
2023-04-03T00:39:41.110Z,1028.27
2023-04-03T00:40:40.929Z,1028.27
2023-04-03T00:41:40.949Z,1028.23
2023-04-03T00:42:40.960Z,1028.28
2023-04-03T00:43:40.909Z,1028.26
2023-04-03T00:44:40.929Z,1028.28
2023-04-03T00:45:41.048Z,1028.26
2023-04-03T00:46:40.901Z,1028.25
2023-04-03T00:47:40.924Z,1028.24
2023-04-03T00:48:40.843Z,1028.27
2023-04-03T00:49:40.827Z,1028.28
2023-04-03T00:50:40.848Z,1028.27
2023-04-03T00:51:40.852Z,1028.29
2023-04-03T00:52:40.813Z,1028.26
2023-04-03T00:53:40.775Z,1028.31
2023-04-03T00:54:40.824Z,1028.31
2023-04-03T00:55:40.741Z,1028.32
2023-04-03T00:56:40.781Z,1028.33
2023-04-03T00:57:40.770Z,1028.34
2023-04-03T00:58:40.790Z,1028.36
2023-04-03T00:59:40.706Z,1028.36
2023-04-03T01:00:40.693Z,1028.37
2023-04-03T01:01:40.677Z,1028.41
2023-04-03T01:02:40.752Z,1028.39
2023-04-03T01:03:40.681Z,1028.38
2023-04-03T01:04:40.774Z,1028.40
2023-04-03T01:05:40.621Z,1028.36
2023-04-03T01:06:40.617Z,1028.37
2023-04-03T01:07:40.579Z,1028.40
2023-04-03T01:08:40.611Z,1028.41
2023-04-03T01:09:40.688Z,1028.42
2023-04-03T01:10:40.564Z,1028.40
2023-04-03T01:11:40.546Z,1028.39
2023-04-03T01:12:40.559Z,1028.42
2023-04-03T01:13:41.499Z,1028.37
2023-04-03T01:14:40.549Z,1028.39
2023-04-03T01:15:40.616Z,1028.36
2023-04-03T01:16:40.513Z,1028.39
2023-04-03T01:17:40.541Z,1028.39
2023-04-03T01:18:40.460Z,1028.39
2023-04-03T01:19:40.447Z,1028.48
2023-04-03T01:20:40.479Z,1028.46
2023-04-03T01:21:40.509Z,1028.44
2023-04-03T01:22:40.435Z,1028.46
2023-04-03T01:23:40.390Z,1028.48
2023-04-03T01:24:40.387Z,1028.45
2023-04-03T01:25:40.389Z,1028.50
2023-04-03T01:26:40.386Z,1028.45
2023-04-03T01:27:40.441Z,1028.43
2023-04-03T01:28:40.354Z,1028.46
2023-04-03T01:29:40.329Z,1028.46
2023-04-03T01:30:40.298Z,1028.48
2023-04-03T01:31:40.318Z,1028.48
2023-04-03T01:32:40.302Z,1028.51
2023-04-03T01:33:40.287Z,1028.51
2023-04-03T01:34:40.285Z,1028.53
2023-04-03T01:35:40.233Z,1028.53
2023-04-03T01:36:40.252Z,1028.52
2023-04-03T01:37:40.212Z,1028.52
2023-04-03T01:38:40.204Z,1028.50
2023-04-03T01:39:40.189Z,1028.53
2023-04-03T01:40:40.190Z,1028.57
2023-04-03T01:41:40.181Z,1028.57
2023-04-03T01:42:40.147Z,1028.60
2023-04-03T01:43:40.131Z,1028.58
2023-04-03T01:44:40.142Z,1028.58
2023-04-03T01:45:40.187Z,1028.53
2023-04-03T01:46:40.161Z,1028.55
2023-04-03T01:47:40.115Z,1028.61
2023-04-03T01:48:40.096Z,1028.60
2023-04-03T01:49:40.058Z,1028.57
2023-04-03T01:50:40.055Z,1028.60
2023-04-03T01:51:40.065Z,1028.61
2023-04-03T01:52:40.015Z,1028.59
2023-04-03T01:53:40.004Z,1028.59
2023-04-03T01:54:40.049Z,1028.60
2023-04-03T01:55:39.962Z,1028.58
2023-04-03T01:56:40.027Z,1028.58
2023-04-03T01:57:39.989Z,1028.55
2023-04-03T01:58:39.958Z,1028.57
2023-04-03T01:59:39.908Z,1028.57
2023-04-03T02:00:39.911Z,1028.59
2023-04-03T02:01:39.890Z,1028.63
2023-04-03T02:02:39.941Z,1028.62
2023-04-03T02:03:39.871Z,1028.59
2023-04-03T02:04:39.896Z,1028.64
2023-04-03T02:05:39.864Z,1028.64
2023-04-03T02:06:39.826Z,1028.63
2023-04-03T02:07:39.813Z,1028.66
2023-04-03T02:08:39.841Z,1028.67
2023-04-03T02:09:39.806Z,1028.69
2023-04-03T02:10:39.792Z,1028.65
2023-04-03T02:11:39.774Z,1028.69
2023-04-03T02:12:39.757Z,1028.67
2023-04-03T02:13:39.711Z,1028.73
2023-04-03T02:14:39.752Z,1028.69
2023-04-03T02:15:39.795Z,1028.72
2023-04-03T02:16:39.790Z,1028.70
2023-04-03T02:17:39.702Z,1028.76
2023-04-03T02:18:39.741Z,1028.76
2023-04-03T02:19:39.664Z,1028.75
2023-04-03T02:20:39.889Z,1028.76
2023-04-03T02:21:39.740Z,1028.76
2023-04-03T02:22:39.645Z,1028.81
2023-04-03T02:23:39.565Z,1028.78
2023-04-03T02:24:39.646Z,1028.79
2023-04-03T02:25:39.568Z,1028.78
2023-04-03T02:26:39.558Z,1028.78
2023-04-03T02:27:39.575Z,1028.78
2023-04-03T02:28:39.558Z,1028.79
2023-04-03T02:29:39.520Z,1028.76
2023-04-03T02:30:39.975Z,1028.79
2023-04-03T02:31:39.480Z,1028.79
2023-04-03T02:32:39.530Z,1028.76
2023-04-03T02:33:39.567Z,1028.84
2023-04-03T02:34:39.490Z,1028.80
2023-04-03T02:35:39.449Z,1028.86
2023-04-03T02:36:39.455Z,1028.87
2023-04-03T02:37:39.416Z,1028.87
2023-04-03T02:38:39.387Z,1028.86
2023-04-03T02:39:39.423Z,1028.83
2023-04-03T02:40:39.621Z,1028.81
2023-04-03T02:41:39.354Z,1028.85
2023-04-03T02:42:39.373Z,1028.91
2023-04-03T02:43:39.337Z,1028.85
2023-04-03T02:44:39.337Z,1028.86
2023-04-03T02:45:39.408Z,1028.86
2023-04-03T02:46:39.322Z,1028.89
2023-04-03T02:47:39.285Z,1028.94
2023-04-03T02:48:39.296Z,1028.85
2023-04-03T02:49:39.253Z,1028.93
2023-04-03T02:50:39.261Z,1028.91
2023-04-03T02:51:39.276Z,1028.89
2023-04-03T02:52:39.208Z,1028.91
2023-04-03T02:53:39.171Z,1028.90
2023-04-03T02:54:39.244Z,1028.88
2023-04-03T02:55:39.184Z,1028.90
2023-04-03T02:56:39.226Z,1028.93
2023-04-03T02:57:39.258Z,1028.89
2023-04-03T02:58:39.137Z,1028.90
2023-04-03T02:59:39.131Z,1028.90
2023-04-03T03:00:39.405Z,1028.89
2023-04-03T03:01:39.143Z,1028.93
2023-04-03T03:02:39.118Z,1028.91
2023-04-03T03:03:39.163Z,1028.93
2023-04-03T03:04:39.118Z,1028.92
2023-04-03T03:05:39.064Z,1028.92
2023-04-03T03:06:39.027Z,1028.93
2023-04-03T03:07:39.023Z,1028.89
2023-04-03T03:08:39.028Z,1028.88
2023-04-03T03:09:39.024Z,1028.94
2023-04-03T03:10:39.277Z,1028.94
2023-04-03T03:11:38.955Z,1028.93
2023-04-03T03:12:38.982Z,1028.90
2023-04-03T03:13:38.940Z,1028.94
2023-04-03T03:14:38.947Z,1028.90
2023-04-03T03:15:39.066Z,1028.88
2023-04-03T03:16:38.955Z,1028.92
2023-04-03T03:17:38.921Z,1028.94
2023-04-03T03:18:38.871Z,1028.94
2023-04-03T03:19:38.864Z,1028.95
2023-04-03T03:20:38.984Z,1028.96
2023-04-03T03:21:38.842Z,1028.99
2023-04-03T03:22:38.855Z,1029.02
2023-04-03T03:23:38.793Z,1028.99
2023-04-03T03:24:38.838Z,1029.00
2023-04-03T03:25:39.025Z,1028.97
2023-04-03T03:26:38.770Z,1029.01
2023-04-03T03:27:38.868Z,1028.99
2023-04-03T03:28:38.750Z,1029.08
2023-04-03T03:29:38.710Z,1029.02
2023-04-03T03:30:38.739Z,1029.04
2023-04-03T03:31:38.760Z,1029.14
2023-04-03T03:32:38.710Z,1029.11
2023-04-03T03:33:38.672Z,1029.11
2023-04-03T03:34:38.684Z,1029.16
2023-04-03T03:35:38.844Z,1029.15
2023-04-03T03:36:38.666Z,1029.12
2023-04-03T03:37:38.616Z,1029.13
2023-04-03T03:38:38.652Z,1029.15
2023-04-03T03:39:38.635Z,1029.11
2023-04-03T03:40:38.581Z,1029.17
2023-04-03T03:41:38.578Z,1029.13
2023-04-03T03:42:38.595Z,1029.11
2023-04-03T03:43:38.517Z,1029.06
2023-04-03T03:44:38.569Z,1029.11
2023-04-03T03:45:38.860Z,1029.10
2023-04-03T03:46:38.538Z,1029.09
2023-04-03T03:47:38.513Z,1029.07
2023-04-03T03:48:38.497Z,1029.12
2023-04-03T03:49:38.464Z,1029.09
2023-04-03T03:50:38.485Z,1029.13
2023-04-03T03:51:38.457Z,1029.14
2023-04-03T03:52:38.422Z,1029.15
2023-04-03T03:53:38.386Z,1029.17
2023-04-03T03:54:38.427Z,1029.16
2023-04-03T03:55:38.658Z,1029.20
2023-04-03T03:56:38.405Z,1029.19
2023-04-03T03:57:38.478Z,1029.17
2023-04-03T03:58:38.335Z,1029.22
2023-04-03T03:59:39.309Z,1029.22
2023-04-03T04:00:38.323Z,1029.25
2023-04-03T04:01:38.353Z,1029.26
2023-04-03T04:02:38.438Z,1029.30
2023-04-03T04:03:38.439Z,1029.32
2023-04-03T04:04:38.288Z,1029.32
2023-04-03T04:05:38.502Z,1029.34
2023-04-03T04:06:38.245Z,1029.31
2023-04-03T04:07:38.243Z,1029.32
2023-04-03T04:08:38.220Z,1029.32
2023-04-03T04:09:38.229Z,1029.29
2023-04-03T04:10:38.205Z,1029.36
2023-04-03T04:11:38.147Z,1029.31
2023-04-03T04:12:38.213Z,1029.36
2023-04-03T04:13:38.146Z,1029.29
2023-04-03T04:14:38.137Z,1029.32
2023-04-03T04:15:38.549Z,1029.40
2023-04-03T04:16:38.148Z,1029.32
2023-04-03T04:17:38.154Z,1029.31
2023-04-03T04:18:38.114Z,1029.38
2023-04-03T04:19:38.103Z,1029.36
2023-04-03T04:20:38.056Z,1029.38
2023-04-03T04:21:38.144Z,1029.33
2023-04-03T04:22:38.078Z,1029.32
2023-04-03T04:23:37.983Z,1029.34
2023-04-03T04:24:39.316Z,1029.39
2023-04-03T04:25:38.360Z,1029.43
2023-04-03T04:26:37.979Z,1029.38
2023-04-03T04:27:37.992Z,1029.39
2023-04-03T04:28:37.965Z,1029.42
2023-04-03T04:29:37.993Z,1029.40
2023-04-03T04:30:37.970Z,1029.40
2023-04-03T04:31:38.007Z,1029.44
2023-04-03T04:32:38.024Z,1029.43
2023-04-03T04:33:38.015Z,1029.43
2023-04-03T04:34:37.971Z,1029.42
2023-04-03T04:35:38.213Z,1029.41
2023-04-03T04:36:37.998Z,1029.44
2023-04-03T04:37:37.844Z,1029.40
2023-04-03T04:38:37.854Z,1029.38
2023-04-03T04:39:37.845Z,1029.37
2023-04-03T04:40:37.813Z,1029.42
2023-04-03T04:41:37.790Z,1029.42
2023-04-03T04:42:37.810Z,1029.46
2023-04-03T04:43:37.742Z,1029.46
2023-04-03T04:44:37.805Z,1029.42
2023-04-03T04:45:38.201Z,1029.45
2023-04-03T04:46:37.874Z,1029.45
2023-04-03T04:47:37.735Z,1029.47
2023-04-03T04:48:37.725Z,1029.42
2023-04-03T04:49:37.688Z,1029.42
2023-04-03T04:50:37.703Z,1029.45
2023-04-03T04:51:48.361Z,1029.47
2023-04-03T04:52:38.646Z,1029.50
2023-04-03T04:53:37.610Z,1029.42
2023-04-03T04:54:37.663Z,1029.45
2023-04-03T04:55:37.765Z,1029.44
2023-04-03T04:56:37.638Z,1029.49
2023-04-03T04:57:37.819Z,1029.57
2023-04-03T04:58:37.569Z,1029.56
2023-04-03T04:59:37.555Z,1029.53
2023-04-03T05:00:37.545Z,1029.48
2023-04-03T05:01:37.594Z,1029.55
2023-04-03T05:04:22.818Z,1029.52
2023-04-03T05:04:53.455Z,1029.55
2023-04-03T05:05:55.306Z,1029.58
2023-04-03T05:06:49.403Z,1029.50
2023-04-03T05:07:49.598Z,1029.58
2023-04-03T05:08:49.325Z,1029.63
2023-04-03T05:09:52.812Z,1029.59
2023-04-03T05:10:50.766Z,1029.66
2023-04-03T05:11:49.216Z,1029.63
2023-04-03T05:12:53.359Z,1029.64
2023-04-03T05:13:51.717Z,1029.71
2023-04-03T05:14:52.916Z,1029.70
2023-04-03T05:15:50.859Z,1029.70
2023-04-03T05:16:51.464Z,1029.77
2023-04-03T05:17:50.895Z,1029.81
2023-04-03T05:18:53.294Z,1029.76
2023-04-03T05:19:50.713Z,1029.79
2023-04-03T05:20:49.710Z,1029.77
2023-04-03T05:21:53.187Z,1029.80
2023-04-03T05:22:49.699Z,1029.80
2023-04-03T05:23:49.098Z,1029.86
2023-04-03T05:24:49.228Z,1029.85
2023-04-03T05:25:49.655Z,1029.87
2023-04-03T05:26:49.121Z,1029.88
2023-04-03T05:27:55.759Z,1029.89
2023-04-03T05:28:50.789Z,1029.89
2023-04-03T05:29:48.931Z,1029.92
2023-04-03T05:30:49.562Z,1029.91
2023-04-03T05:31:49.598Z,1029.90
2023-04-03T05:32:55.337Z,1029.88
2023-04-03T05:33:51.444Z,1029.93
2023-04-03T05:34:53.316Z,1029.94
2023-04-03T05:35:49.944Z,1029.94
2023-04-03T05:36:48.649Z,1029.97
2023-04-03T05:37:48.553Z,1029.97
2023-04-03T05:38:48.634Z,1029.93
2023-04-03T05:39:48.560Z,1029.92
2023-04-03T05:40:48.554Z,1029.90
2023-04-03T05:41:48.525Z,1029.91
2023-04-03T05:42:48.504Z,1029.97
2023-04-03T05:43:48.478Z,1029.97
2023-04-03T05:44:48.637Z,1029.99
2023-04-03T05:45:48.504Z,1030.01
2023-04-03T05:46:48.476Z,1029.98
2023-04-03T05:47:48.533Z,1029.96
2023-04-03T05:48:48.467Z,1029.96
2023-04-03T05:49:48.418Z,1029.95
2023-04-03T05:50:48.547Z,1030.01
2023-04-03T05:51:48.388Z,1030.00
2023-04-03T05:52:48.392Z,1030.02
2023-04-03T05:53:48.365Z,1030.03
2023-04-03T05:54:48.389Z,1030.01
2023-04-03T05:55:48.316Z,1030.04
2023-04-03T05:56:48.489Z,1030.03
2023-04-03T05:57:48.288Z,1030.04
2023-04-03T05:58:48.354Z,1030.03
2023-04-03T05:59:48.296Z,1030.05
2023-04-03T06:00:48.283Z,1030.06
2023-04-03T06:01:48.265Z,1030.06
2023-04-03T06:02:48.368Z,1030.06
2023-04-03T06:03:48.362Z,1030.08
2023-04-03T06:04:48.343Z,1030.02
2023-04-03T06:05:48.192Z,1030.03
2023-04-03T06:06:48.232Z,1030.02
2023-04-03T06:07:48.180Z,1030.03
2023-04-03T06:08:48.203Z,1030.03
2023-04-03T06:09:48.183Z,1030.10
2023-04-03T06:10:48.142Z,1030.07
2023-04-03T06:11:48.102Z,1030.05
2023-04-03T06:12:48.148Z,1030.07
2023-04-03T06:13:48.081Z,1030.02
2023-04-03T06:14:48.163Z,1030.03
2023-04-03T06:15:48.078Z,1030.06
2023-04-03T06:16:48.095Z,1030.08
2023-04-03T06:17:48.085Z,1030.08
2023-04-03T06:18:48.077Z,1030.12
2023-04-03T06:19:48.044Z,1030.14
2023-04-03T06:20:48.046Z,1030.16
2023-04-03T06:21:48.035Z,1030.17
2023-04-03T06:22:48.007Z,1030.18
2023-04-03T06:23:47.981Z,1030.13
2023-04-03T06:24:48.000Z,1030.17
2023-04-03T06:25:47.922Z,1030.17
2023-04-03T06:26:48.013Z,1030.18
2023-04-03T06:27:47.949Z,1030.19
2023-04-03T06:28:47.906Z,1030.17
2023-04-03T06:29:47.903Z,1030.20
2023-04-03T06:30:47.910Z,1030.19
2023-04-03T06:31:47.855Z,1030.21
2023-04-03T06:32:48.023Z,1030.23
2023-04-03T06:33:47.843Z,1030.25
2023-04-03T06:34:47.843Z,1030.13
2023-04-03T06:35:47.832Z,1030.16
2023-04-03T06:36:47.845Z,1030.17
2023-04-03T06:37:47.782Z,1030.21
2023-04-03T06:38:47.836Z,1030.21
2023-04-03T06:39:47.774Z,1030.20
2023-04-03T06:40:47.762Z,1030.18
2023-04-03T06:41:47.745Z,1030.23
2023-04-03T06:42:47.735Z,1030.19
2023-04-03T06:43:47.724Z,1030.23
2023-04-03T06:44:47.766Z,1030.28
2023-04-03T06:45:47.657Z,1030.26
2023-04-03T06:46:47.735Z,1030.23
2023-04-03T06:47:47.719Z,1030.28
2023-04-03T06:48:47.900Z,1030.34
2023-04-03T06:49:47.616Z,1030.35
2023-04-03T06:50:47.685Z,1030.34
2023-04-03T06:51:47.618Z,1030.42
2023-04-03T06:52:47.601Z,1030.40
2023-04-03T06:53:47.613Z,1030.47
2023-04-03T06:54:47.583Z,1030.45
2023-04-03T06:55:47.533Z,1030.51
2023-04-03T06:56:47.608Z,1030.48
2023-04-03T06:57:47.529Z,1030.45
2023-04-03T06:58:47.553Z,1030.50
2023-04-03T06:59:47.508Z,1030.51
2023-04-03T07:00:47.488Z,1030.41
2023-04-03T07:01:47.664Z,1030.39
2023-04-03T07:02:47.618Z,1030.42
2023-04-03T07:03:47.429Z,1030.41
2023-04-03T07:04:47.524Z,1030.42
2023-04-03T07:05:47.409Z,1030.42
2023-04-03T07:06:47.439Z,1030.37
2023-04-03T07:07:47.415Z,1030.41
2023-04-03T07:08:47.510Z,1030.42
2023-04-03T07:09:47.364Z,1030.44
2023-04-03T07:10:47.385Z,1030.43
2023-04-03T07:11:47.316Z,1030.50
2023-04-03T07:12:47.352Z,1030.39
2023-04-03T07:13:47.294Z,1030.41
2023-04-03T07:14:47.373Z,1030.45
2023-04-03T07:15:47.364Z,1030.52
2023-04-03T07:16:47.303Z,1030.55
2023-04-03T07:17:47.282Z,1030.56
2023-04-03T07:18:47.247Z,1030.61
2023-04-03T07:19:47.238Z,1030.61
2023-04-03T07:20:47.329Z,1030.63
2023-04-03T07:21:47.237Z,1030.62
2023-04-03T07:22:47.209Z,1030.64
2023-04-03T07:24:47.206Z,1030.70
2023-04-03T07:25:47.137Z,1030.70
2023-04-03T07:26:47.224Z,1030.71
2023-04-03T07:27:47.142Z,1030.74
2023-04-03T07:28:47.166Z,1030.72
2023-04-03T07:29:47.111Z,1030.71
2023-04-03T07:30:47.123Z,1030.72
2023-04-03T07:31:47.097Z,1030.76
2023-04-03T07:32:47.149Z,1030.76
2023-04-03T07:33:47.064Z,1030.76
2023-04-03T07:34:47.077Z,1030.76
2023-04-03T07:35:48.026Z,1030.80
2023-04-03T07:36:47.018Z,1030.84
2023-04-03T07:37:47.002Z,1030.83
2023-04-03T07:38:47.134Z,1030.89
2023-04-03T07:39:46.989Z,1030.89
2023-04-03T07:40:46.971Z,1030.87
2023-04-03T07:41:46.947Z,1030.89
2023-04-03T07:42:46.980Z,1030.84
2023-04-03T07:43:46.903Z,1030.83
2023-04-03T07:44:46.979Z,1030.80
2023-04-03T07:45:46.915Z,1030.83
2023-04-03T07:46:46.926Z,1030.81
2023-04-03T07:47:46.911Z,1030.82
2023-04-03T07:48:46.871Z,1030.83
2023-04-03T07:49:46.872Z,1030.87
2023-04-03T07:50:46.883Z,1030.85
2023-04-03T07:51:46.790Z,1030.87
2023-04-03T07:52:46.837Z,1030.89
2023-04-03T07:53:46.797Z,1030.81
2023-04-03T07:54:46.787Z,1030.80
2023-04-03T07:55:46.741Z,1030.88
2023-04-03T07:56:46.809Z,1030.87
2023-04-03T07:57:46.733Z,1030.85
2023-04-03T07:58:46.754Z,1030.82
2023-04-03T07:59:46.715Z,1030.84
2023-04-03T08:00:46.714Z,1030.82
2023-04-03T08:01:46.682Z,1030.83
2023-04-03T08:02:46.754Z,1030.87
2023-04-03T08:03:46.713Z,1030.86
2023-04-03T08:04:46.813Z,1030.80
2023-04-03T08:05:46.623Z,1030.82
2023-04-03T08:06:47.292Z,1030.83
2023-04-03T08:07:46.605Z,1030.86
2023-04-03T08:08:46.739Z,1030.85
2023-04-03T08:09:46.610Z,1030.85
2023-04-03T08:10:46.568Z,1030.85
2023-04-03T08:11:46.524Z,1030.90
2023-04-03T08:12:46.566Z,1030.92
2023-04-03T08:13:46.496Z,1030.87
2023-04-03T08:14:46.622Z,1030.96
2023-04-03T08:15:46.502Z,1030.87
2023-04-03T08:16:46.680Z,1030.90
2023-04-03T08:17:46.579Z,1030.93
2023-04-03T08:18:46.458Z,1030.92
2023-04-03T08:19:46.421Z,1030.90
2023-04-03T08:20:46.548Z,1030.91
2023-04-03T08:21:46.471Z,1030.90
2023-04-03T08:22:46.423Z,1030.89
2023-04-03T08:23:46.416Z,1030.91
2023-04-03T08:24:58.270Z,1030.81
2023-04-03T08:25:47.369Z,1030.82
2023-04-03T08:26:46.373Z,1030.88
2023-04-03T08:27:46.386Z,1030.80
2023-04-03T08:28:46.321Z,1030.82
2023-04-03T08:29:46.318Z,1030.80
2023-04-03T08:30:46.320Z,1030.80
2023-04-03T08:31:46.279Z,1030.82
2023-04-03T08:32:46.387Z,1030.79
2023-04-03T08:33:46.238Z,1030.78
2023-04-03T08:34:46.269Z,1030.82
2023-04-03T08:35:46.250Z,1030.80
2023-04-03T08:36:46.210Z,1030.79
2023-04-03T08:37:46.229Z,1030.78
2023-04-03T08:38:46.204Z,1030.76
2023-04-03T08:39:46.152Z,1030.77
2023-04-03T08:40:46.191Z,1030.77
2023-04-03T08:41:46.145Z,1030.72
2023-04-03T08:42:46.141Z,1030.70
2023-04-03T08:43:46.148Z,1030.69
2023-04-03T08:44:46.142Z,1030.70
2023-04-03T08:45:46.288Z,1030.65
2023-04-03T08:46:46.237Z,1030.61
2023-04-03T08:47:46.845Z,1030.61
2023-04-03T08:48:46.066Z,1030.64
2023-04-03T08:49:46.109Z,1030.60
2023-04-03T08:50:46.034Z,1030.68
2023-04-03T08:51:45.991Z,1030.64
2023-04-03T08:52:46.024Z,1030.64
2023-04-03T08:53:45.965Z,1030.69
2023-04-03T08:54:46.006Z,1030.67
2023-04-03T08:55:46.010Z,1030.65
2023-04-03T08:56:45.969Z,1030.59
2023-04-03T08:57:45.940Z,1030.64
2023-04-03T08:58:45.948Z,1030.60
2023-04-03T08:59:45.913Z,1030.59
2023-04-03T09:00:45.918Z,1030.60
2023-04-03T09:01:45.943Z,1030.58
2023-04-03T09:02:47.315Z,1030.59
2023-04-03T09:03:45.898Z,1030.53
2023-04-03T09:04:45.882Z,1030.57
2023-04-03T09:05:45.830Z,1030.55
2023-04-03T09:06:45.838Z,1030.52
2023-04-03T09:07:47.843Z,1030.57
2023-04-03T09:08:45.803Z,1030.56
2023-04-03T09:09:45.774Z,1030.51
2023-04-03T09:10:45.759Z,1030.53
2023-04-03T09:11:45.714Z,1030.54
2023-04-03T09:12:45.766Z,1030.56
2023-04-03T09:13:45.852Z,1030.50
2023-04-03T09:14:45.720Z,1030.50
2023-04-03T09:15:45.771Z,1030.48
2023-04-03T09:16:45.642Z,1030.47
2023-04-03T09:17:45.709Z,1030.49
2023-04-03T09:18:45.620Z,1030.55
2023-04-03T09:19:45.692Z,1030.48
2023-04-03T09:20:45.628Z,1030.48
2023-04-03T09:21:45.602Z,1030.54
2023-04-03T09:22:49.780Z,1030.50
2023-04-03T09:23:46.611Z,1030.45
2023-04-03T09:24:45.543Z,1030.43
2023-04-03T09:25:45.688Z,1030.40
2023-04-03T09:26:45.509Z,1030.40
2023-04-03T09:27:45.532Z,1030.41
2023-04-03T09:28:50.517Z,1030.40
2023-04-03T09:29:46.534Z,1030.45
2023-04-03T09:30:45.466Z,1030.41
2023-04-03T09:31:45.615Z,1030.46
2023-04-03T09:32:47.124Z,1030.44
2023-04-03T09:33:45.457Z,1030.35
2023-04-03T09:34:45.467Z,1030.41
2023-04-03T09:35:48.676Z,1030.44
2023-04-03T09:36:45.397Z,1030.41
2023-04-03T09:37:45.474Z,1030.45
2023-04-03T09:38:45.359Z,1030.46
2023-04-03T09:39:45.358Z,1030.42
2023-04-03T09:40:45.365Z,1030.39
2023-04-03T09:41:45.397Z,1030.38
2023-04-03T09:42:48.893Z,1030.45
2023-04-03T09:43:46.380Z,1030.41
2023-04-03T09:44:45.297Z,1030.42
2023-04-03T09:45:45.289Z,1030.47
2023-04-03T09:46:45.286Z,1030.39
2023-04-03T09:47:45.332Z,1030.38
2023-04-03T09:48:45.604Z,1030.38
2023-04-03T09:49:45.372Z,1030.36
2023-04-03T09:50:45.212Z,1030.34
2023-04-03T09:51:45.209Z,1030.34
2023-04-03T09:52:45.229Z,1030.29
2023-04-03T09:53:45.217Z,1030.32
2023-04-03T09:54:45.185Z,1030.24
2023-04-03T09:55:45.241Z,1030.27
2023-04-03T09:56:45.121Z,1030.24
2023-04-03T09:57:45.157Z,1030.26
2023-04-03T09:58:50.465Z,1030.26
2023-04-03T09:59:46.112Z,1030.22
2023-04-03T10:00:45.093Z,1030.21
2023-04-03T10:01:45.160Z,1030.18
2023-04-03T10:02:45.100Z,1030.13
2023-04-03T10:03:45.051Z,1030.18
2023-04-03T10:04:47.214Z,1030.14
2023-04-03T10:05:45.027Z,1030.14
2023-04-03T10:06:45.013Z,1030.17
2023-04-03T10:07:51.669Z,1030.20
2023-04-03T10:08:45.978Z,1030.14
2023-04-03T10:09:45.004Z,1030.17
2023-04-03T10:10:44.940Z,1030.13
2023-04-03T10:11:45.016Z,1030.12
2023-04-03T10:12:44.937Z,1030.06
2023-04-03T10:13:50.700Z,1030.08
2023-04-03T10:14:45.952Z,1030.06
2023-04-03T10:15:44.949Z,1030.01
2023-04-03T10:16:44.948Z,1030.03
2023-04-03T10:17:44.951Z,1030.03
2023-04-03T10:18:44.839Z,1029.96
2023-04-03T10:19:44.917Z,1029.98
2023-04-03T10:20:44.907Z,1029.95
2023-04-03T10:21:44.902Z,1029.95
2023-04-03T10:22:44.843Z,1029.94
2023-04-03T10:23:44.837Z,1029.84
2023-04-03T10:24:44.757Z,1029.84
2023-04-03T10:25:44.815Z,1029.84
2023-04-03T10:26:44.707Z,1029.87
2023-04-03T10:27:44.746Z,1029.79
2023-04-03T10:28:44.729Z,1029.86
2023-04-03T10:29:44.701Z,1029.88
2023-04-03T10:30:44.697Z,1029.84
2023-04-03T10:31:44.838Z,1029.83
2023-04-03T10:32:44.651Z,1029.82
2023-04-03T10:33:44.642Z,1029.82
2023-04-03T10:34:46.765Z,1029.81
2023-04-03T10:35:45.664Z,1029.84
2023-04-03T10:36:44.594Z,1029.81
2023-04-03T10:37:44.617Z,1029.83
2023-04-03T10:38:44.554Z,1029.83
2023-04-03T10:39:44.558Z,1029.84
2023-04-03T10:40:44.541Z,1029.83
2023-04-03T10:41:44.548Z,1029.81
2023-04-03T10:42:44.519Z,1029.76
2023-04-03T10:43:44.562Z,1029.77
2023-04-03T10:44:44.549Z,1029.74
2023-04-03T10:45:44.521Z,1029.70
2023-04-03T10:46:44.437Z,1029.70
2023-04-03T10:47:44.459Z,1029.70
2023-04-03T10:48:44.451Z,1029.64
2023-04-03T10:49:50.007Z,1029.72
2023-04-03T10:50:45.381Z,1029.65
2023-04-03T10:51:44.398Z,1029.68
2023-04-03T10:52:44.394Z,1029.68
2023-04-03T10:53:44.372Z,1029.68
2023-04-03T10:54:44.354Z,1029.67
2023-04-03T10:55:44.402Z,1029.71
2023-04-03T10:56:44.305Z,1029.59
2023-04-03T10:57:44.403Z,1029.60
2023-04-03T10:58:44.320Z,1029.58
2023-04-03T10:59:44.294Z,1029.54
2023-04-03T11:00:44.285Z,1029.53
2023-04-03T11:01:44.352Z,1029.57
2023-04-03T11:02:44.319Z,1029.57
2023-04-03T11:03:44.358Z,1029.59
2023-04-03T11:04:44.194Z,1029.56
2023-04-03T11:05:44.233Z,1029.50
2023-04-03T11:06:44.226Z,1029.52
2023-04-03T11:07:44.274Z,1029.55
2023-04-03T11:08:44.169Z,1029.54
2023-04-03T11:09:44.186Z,1029.55
2023-04-03T11:10:44.111Z,1029.53
2023-04-03T11:11:44.136Z,1029.54
2023-04-03T11:12:44.516Z,1029.50
2023-04-03T11:13:44.148Z,1029.49
2023-04-03T11:14:44.094Z,1029.49
2023-04-03T11:15:44.132Z,1029.43
2023-04-03T11:16:53.541Z,1029.48
2023-04-03T11:17:45.088Z,1029.44
2023-04-03T11:18:44.981Z,1029.41
2023-04-03T11:19:44.134Z,1029.42
2023-04-03T11:20:44.008Z,1029.44
2023-04-03T11:21:43.985Z,1029.39
2023-04-03T11:22:43.959Z,1029.44
2023-04-03T11:23:49.690Z,1029.39
2023-04-03T11:24:44.972Z,1029.31
2023-04-03T11:25:45.666Z,1029.32
2023-04-03T11:26:43.899Z,1029.29
2023-04-03T11:27:43.979Z,1029.32
2023-04-03T11:28:43.901Z,1029.31
2023-04-03T11:29:43.875Z,1029.28
2023-04-03T11:30:43.899Z,1029.25
2023-04-03T11:31:43.934Z,1029.23
2023-04-03T11:32:43.857Z,1029.27
2023-04-03T11:33:43.898Z,1029.29
2023-04-03T11:34:43.793Z,1029.29
2023-04-03T11:35:43.843Z,1029.25
2023-04-03T11:36:43.852Z,1029.28
2023-04-03T11:37:43.826Z,1029.33
2023-04-03T11:38:43.738Z,1029.30
2023-04-03T11:39:43.746Z,1029.23
2023-04-03T11:40:43.733Z,1029.25
2023-04-03T11:41:43.742Z,1029.21
2023-04-03T11:42:43.957Z,1029.17
2023-04-03T11:43:43.711Z,1029.09
2023-04-03T11:44:43.674Z,1029.06
2023-04-03T11:45:43.711Z,1029.08
2023-04-03T11:46:43.671Z,1029.11
2023-04-03T11:47:43.660Z,1029.07
2023-04-03T11:48:43.657Z,1029.08
2023-04-03T11:49:43.618Z,1029.08
2023-04-03T11:50:43.624Z,1029.07
2023-04-03T11:51:43.637Z,1029.04
2023-04-03T11:52:44.656Z,1029.06
2023-04-03T11:53:43.591Z,1029.02
2023-04-03T11:54:45.194Z,1028.98
2023-04-03T11:55:43.565Z,1028.96
2023-04-03T11:56:43.498Z,1028.99
2023-04-03T11:57:43.523Z,1028.91
2023-04-03T11:58:43.497Z,1028.91
2023-04-03T11:59:43.467Z,1028.93
2023-04-03T12:00:43.575Z,1028.87
2023-04-03T12:01:43.509Z,1028.95
2023-04-03T12:02:53.849Z,1028.91
2023-04-03T12:03:44.570Z,1028.92
2023-04-03T12:04:43.512Z,1028.95
2023-04-03T12:05:43.422Z,1028.97
2023-04-03T12:06:43.380Z,1028.95
2023-04-03T12:07:43.379Z,1028.87